sensor_id;sensor_type;location;lat;lon;timestamp;temperature;humidity
63202;DHT22;49296;48.188;11.566;2023-11-22T00:01:04;8.44;84.76
63202;DHT22;49296;48.188;11.566;2023-11-22T00:03:32;8.33;84.83
63202;DHT22;49296;48.188;11.566;2023-11-22T00:05:58;8.41;84.76
63202;DHT22;49296;48.188;11.566;2023-11-22T00:08:26;8.30;84.75
63202;DHT22;49296;48.188;11.566;2023-11-22T00:10:54;8.23;85.02
63202;DHT22;49296;48.188;11.566;2023-11-22T00:13:21;8.36;84.84
63202;DHT22;49296;48.188;11.566;2023-11-22T00:15:47;8.40;84.83
63202;DHT22;49296;48.188;11.566;2023-11-22T00:18:15;8.51;84.70
63202;DHT22;49296;48.188;11.566;2023-11-22T00:20:43;8.40;84.78
63202;DHT22;49296;48.188;11.566;2023-11-22T00:23:12;8.47;84.80
63202;DHT22;49296;48.188;11.566;2023-11-22T00:25:39;8.44;84.51
63202;DHT22;49296;48.188;11.566;2023-11-22T00:28:05;8.36;84.75
63202;DHT22;49296;48.188;11.566;2023-11-22T00:30:32;8.38;84.67
63202;DHT22;49296;48.188;11.566;2023-11-22T00:32:58;8.20;84.84
63202;DHT22;49296;48.188;11.566;2023-11-22T00:35:25;8.26;84.76
63202;DHT22;49296;48.188;11.566;2023-11-22T00:37:52;8.37;84.72
63202;DHT22;49296;48.188;11.566;2023-11-22T00:40:19;8.33;84.79
63202;DHT22;49296;48.188;11.566;2023-11-22T00:42:45;8.34;84.60
63202;DHT22;49296;48.188;11.566;2023-11-22T00:45:12;8.33;84.68
63202;DHT22;49296;48.188;11.566;2023-11-22T00:47:38;8.29;84.90
63202;DHT22;49296;48.188;11.566;2023-11-22T00:50:05;8.40;84.55
63202;DHT22;49296;48.188;11.566;2023-11-22T00:52:32;8.38;84.44
63202;DHT22;49296;48.188;11.566;2023-11-22T00:55:01;8.34;84.22
63202;DHT22;49296;48.188;11.566;2023-11-22T00:57:27;8.30;84.17
63202;DHT22;49296;48.188;11.566;2023-11-22T00:59:55;8.34;84.19
63202;DHT22;49296;48.188;11.566;2023-11-22T01:02:21;8.38;84.01
63202;DHT22;49296;48.188;11.566;2023-11-22T01:04:48;8.45;84.12
63202;DHT22;49296;48.188;11.566;2023-11-22T01:07:14;8.34;84.26
63202;DHT22;49296;48.188;11.566;2023-11-22T01:09:41;8.33;84.35
63202;DHT22;49296;48.188;11.566;2023-11-22T01:12:08;8.40;83.96
63202;DHT22;49296;48.188;11.566;2023-11-22T01:14:37;8.41;84.08
63202;DHT22;49296;48.188;11.566;2023-11-22T01:17:03;8.26;84.10
63202;DHT22;49296;48.188;11.566;2023-11-22T01:19:30;8.33;83.99
63202;DHT22;49296;48.188;11.566;2023-11-22T01:21:56;8.27;84.03
63202;DHT22;49296;48.188;11.566;2023-11-22T01:24:22;8.31;84.08
63202;DHT22;49296;48.188;11.566;2023-11-22T01:26:51;8.29;84.22
63202;DHT22;49296;48.188;11.566;2023-11-22T01:29:18;8.41;84.02
63202;DHT22;49296;48.188;11.566;2023-11-22T01:31:45;8.40;83.97
63202;DHT22;49296;48.188;11.566;2023-11-22T01:34:12;8.41;83.84
63202;DHT22;49296;48.188;11.566;2023-11-22T01:36:41;8.30;84.22
63202;DHT22;49296;48.188;11.566;2023-11-22T01:39:08;8.45;83.99
63202;DHT22;49296;48.188;11.566;2023-11-22T01:41:34;8.30;84.08
63202;DHT22;49296;48.188;11.566;2023-11-22T01:44:00;8.26;84.13
63202;DHT22;49296;48.188;11.566;2023-11-22T01:46:29;8.26;84.13
63202;DHT22;49296;48.188;11.566;2023-11-22T01:48:55;8.23;84.01
63202;DHT22;49296;48.188;11.566;2023-11-22T01:51:22;8.24;84.12
63202;DHT22;49296;48.188;11.566;2023-11-22T01:53:49;8.22;84.27
63202;DHT22;49296;48.188;11.566;2023-11-22T01:56:18;8.03;84.40
63202;DHT22;49296;48.188;11.566;2023-11-22T01:58:45;7.42;83.84
63202;DHT22;49296;48.188;11.566;2023-11-22T02:01:12;7.23;83.54
63202;DHT22;49296;48.188;11.566;2023-11-22T02:03:40;7.03;83.34
63202;DHT22;49296;48.188;11.566;2023-11-22T02:06:07;6.93;82.62
63202;DHT22;49296;48.188;11.566;2023-11-22T02:08:34;6.54;81.91
63202;DHT22;49296;48.188;11.566;2023-11-22T02:11:01;6.37;82.40
63202;DHT22;49296;48.188;11.566;2023-11-22T02:13:28;6.23;82.00
63202;DHT22;49296;48.188;11.566;2023-11-22T02:15:55;6.03;82.36
63202;DHT22;49296;48.188;11.566;2023-11-22T02:18:21;5.92;82.71
63202;DHT22;49296;48.188;11.566;2023-11-22T02:20:49;5.92;82.74
63202;DHT22;49296;48.188;11.566;2023-11-22T02:23:17;6.12;82.42
63202;DHT22;49296;48.188;11.566;2023-11-22T02:25:44;6.05;82.55
63202;DHT22;49296;48.188;11.566;2023-11-22T02:28:10;6.01;82.55
63202;DHT22;49296;48.188;11.566;2023-11-22T02:30:37;5.81;82.14
63202;DHT22;49296;48.188;11.566;2023-11-22T02:33:03;5.98;82.02
63202;DHT22;49296;48.188;11.566;2023-11-22T02:35:30;5.84;80.95
63202;DHT22;49296;48.188;11.566;2023-11-22T02:37:57;5.94;81.12
63202;DHT22;49296;48.188;11.566;2023-11-22T02:40:25;5.88;80.97
63202;DHT22;49296;48.188;11.566;2023-11-22T02:42:52;5.56;80.78
63202;DHT22;49296;48.188;11.566;2023-11-22T02:45:20;5.63;80.91
63202;DHT22;49296;48.188;11.566;2023-11-22T02:47:48;5.47;80.85
63202;DHT22;49296;48.188;11.566;2023-11-22T02:50:14;5.23;80.99
63202;DHT22;49296;48.188;11.566;2023-11-22T02:52:41;5.36;81.01
63202;DHT22;49296;48.188;11.566;2023-11-22T02:55:08;5.42;80.78
63202;DHT22;49296;48.188;11.566;2023-11-22T02:57:37;5.54;80.77
63202;DHT22;49296;48.188;11.566;2023-11-22T03:00:05;5.46;80.71
63202;DHT22;49296;48.188;11.566;2023-11-22T03:02:32;5.49;80.78
63202;DHT22;49296;48.188;11.566;2023-11-22T03:04:58;5.44;80.62
63202;DHT22;49296;48.188;11.566;2023-11-22T03:07:25;5.40;81.21
63202;DHT22;49296;48.188;11.566;2023-11-22T03:09:51;5.46;80.54
63202;DHT22;49296;48.188;11.566;2023-11-22T03:12:18;5.53;80.65
63202;DHT22;49296;48.188;11.566;2023-11-22T03:14:46;5.77;80.34
63202;DHT22;49296;48.188;11.566;2023-11-22T03:17:14;5.79;79.93
63202;DHT22;49296;48.188;11.566;2023-11-22T03:19:40;5.78;79.87
63202;DHT22;49296;48.188;11.566;2023-11-22T03:22:07;5.77;79.94
63202;DHT22;49296;48.188;11.566;2023-11-22T03:24:34;5.88;79.98
63202;DHT22;49296;48.188;11.566;2023-11-22T03:27:02;6.06;79.71
63202;DHT22;49296;48.188;11.566;2023-11-22T03:29:28;5.95;79.28
63202;DHT22;49296;48.188;11.566;2023-11-22T03:31:56;5.87;79.72
63202;DHT22;49296;48.188;11.566;2023-11-22T03:34:22;5.90;79.87
63202;DHT22;49296;48.188;11.566;2023-11-22T03:36:49;6.01;79.66
63202;DHT22;49296;48.188;11.566;2023-11-22T03:39:15;5.94;79.44
63202;DHT22;49296;48.188;11.566;2023-11-22T03:41:42;5.83;79.71
63202;DHT22;49296;48.188;11.566;2023-11-22T03:44:08;5.84;79.59
63202;DHT22;49296;48.188;11.566;2023-11-22T03:46:35;5.88;79.59
63202;DHT22;49296;48.188;11.566;2023-11-22T03:49:03;5.87;79.82
63202;DHT22;49296;48.188;11.566;2023-11-22T03:51:29;6.02;79.84
63202;DHT22;49296;48.188;11.566;2023-11-22T03:53:56;6.12;79.58
63202;DHT22;49296;48.188;11.566;2023-11-22T03:56:22;6.12;79.34
63202;DHT22;49296;48.188;11.566;2023-11-22T03:58:48;6.01;79.28
63202;DHT22;49296;48.188;11.566;2023-11-22T04:01:15;6.05;79.67
63202;DHT22;49296;48.188;11.566;2023-11-22T04:03:43;6.11;79.29
63202;DHT22;49296;48.188;11.566;2023-11-22T04:06:11;6.09;79.39
63202;DHT22;49296;48.188;11.566;2023-11-22T04:08:38;6.06;79.02
63202;DHT22;49296;48.188;11.566;2023-11-22T04:11:04;6.03;79.25
63202;DHT22;49296;48.188;11.566;2023-11-22T04:13:31;6.03;79.81
63202;DHT22;49296;48.188;11.566;2023-11-22T04:15:57;5.78;80.35
63202;DHT22;49296;48.188;11.566;2023-11-22T04:18:23;5.83;79.77
63202;DHT22;49296;48.188;11.566;2023-11-22T04:20:52;5.79;79.51
63202;DHT22;49296;48.188;11.566;2023-11-22T04:23:19;5.75;79.58
63202;DHT22;49296;48.188;11.566;2023-11-22T04:25:46;5.51;78.92
63202;DHT22;49296;48.188;11.566;2023-11-22T04:28:14;5.53;79.58
63202;DHT22;49296;48.188;11.566;2023-11-22T04:30:41;5.50;79.84
63202;DHT22;49296;48.188;11.566;2023-11-22T04:33:07;5.68;79.28
63202;DHT22;49296;48.188;11.566;2023-11-22T04:35:33;5.64;79.18
63202;DHT22;49296;48.188;11.566;2023-11-22T04:38:02;5.71;79.41
63202;DHT22;49296;48.188;11.566;2023-11-22T04:40:30;5.54;79.51
63202;DHT22;49296;48.188;11.566;2023-11-22T04:42:56;5.64;78.99
63202;DHT22;49296;48.188;11.566;2023-11-22T04:45:23;5.78;78.50
63202;DHT22;49296;48.188;11.566;2023-11-22T04:47:49;5.78;78.68
63202;DHT22;49296;48.188;11.566;2023-11-22T04:50:15;5.39;78.31
63202;DHT22;49296;48.188;11.566;2023-11-22T04:52:42;5.57;78.31
63202;DHT22;49296;48.188;11.566;2023-11-22T04:55:09;5.67;78.45
63202;DHT22;49296;48.188;11.566;2023-11-22T04:57:37;5.64;78.47
63202;DHT22;49296;48.188;11.566;2023-11-22T05:00:05;5.84;78.60
63202;DHT22;49296;48.188;11.566;2023-11-22T05:02:32;5.81;78.76
63202;DHT22;49296;48.188;11.566;2023-11-22T05:04:58;5.85;78.32
63202;DHT22;49296;48.188;11.566;2023-11-22T05:07:25;5.84;78.70
63202;DHT22;49296;48.188;11.566;2023-11-22T05:09:51;5.70;78.87
63202;DHT22;49296;48.188;11.566;2023-11-22T05:12:18;5.32;79.39
63202;DHT22;49296;48.188;11.566;2023-11-22T05:14:45;4.89;80.31
63202;DHT22;49296;48.188;11.566;2023-11-22T05:17:13;5.08;80.40
63202;DHT22;49296;48.188;11.566;2023-11-22T05:19:39;5.35;80.11
63202;DHT22;49296;48.188;11.566;2023-11-22T05:22:05;5.14;79.48
63202;DHT22;49296;48.188;11.566;2023-11-22T05:24:32;4.92;79.86
63202;DHT22;49296;48.188;11.566;2023-11-22T05:27:00;5.15;79.62
63202;DHT22;49296;48.188;11.566;2023-11-22T05:29:26;5.12;79.52
63202;DHT22;49296;48.188;11.566;2023-11-22T05:31:54;5.23;79.57
63202;DHT22;49296;48.188;11.566;2023-11-22T05:34:21;5.07;79.17
63202;DHT22;49296;48.188;11.566;2023-11-22T05:36:47;4.85;79.17
63202;DHT22;49296;48.188;11.566;2023-11-22T05:39:14;4.94;79.30
63202;DHT22;49296;48.188;11.566;2023-11-22T05:41:42;5.22;78.94
63202;DHT22;49296;48.188;11.566;2023-11-22T05:44:09;5.23;78.58
63202;DHT22;49296;48.188;11.566;2023-11-22T05:46:35;5.39;78.73
63202;DHT22;49296;48.188;11.566;2023-11-22T05:49:05;5.56;78.46
63202;DHT22;49296;48.188;11.566;2023-11-22T05:51:31;5.40;78.57
63202;DHT22;49296;48.188;11.566;2023-11-22T05:53:58;5.32;78.55
63202;DHT22;49296;48.188;11.566;2023-11-22T05:56:25;5.44;78.26
63202;DHT22;49296;48.188;11.566;2023-11-22T05:58:52;5.44;78.50
63202;DHT22;49296;48.188;11.566;2023-11-22T06:01:18;5.54;78.34
63202;DHT22;49296;48.188;11.566;2023-11-22T06:03:45;5.16;78.51
63202;DHT22;49296;48.188;11.566;2023-11-22T06:06:13;5.33;78.64
63202;DHT22;49296;48.188;11.566;2023-11-22T06:08:40;5.38;78.74
63202;DHT22;49296;48.188;11.566;2023-11-22T06:11:06;5.50;78.65
63202;DHT22;49296;48.188;11.566;2023-11-22T06:13:32;5.57;78.35
63202;DHT22;49296;48.188;11.566;2023-11-22T06:15:59;5.53;78.91
63202;DHT22;49296;48.188;11.566;2023-11-22T06:18:25;5.57;78.43
63202;DHT22;49296;48.188;11.566;2023-11-22T06:20:55;5.36;78.33
63202;DHT22;49296;48.188;11.566;2023-11-22T06:23:22;5.46;78.42
63202;DHT22;49296;48.188;11.566;2023-11-22T06:25:49;5.33;79.08
63202;DHT22;49296;48.188;11.566;2023-11-22T06:28:15;5.47;78.99
63202;DHT22;49296;48.188;11.566;2023-11-22T06:30:43;5.18;78.37
63202;DHT22;49296;48.188;11.566;2023-11-22T06:33:09;5.39;78.59
63202;DHT22;49296;48.188;11.566;2023-11-22T06:35:35;5.44;78.32
63202;DHT22;49296;48.188;11.566;2023-11-22T06:38:02;5.43;78.73
63202;DHT22;49296;48.188;11.566;2023-11-22T06:40:30;5.60;78.72
63202;DHT22;49296;48.188;11.566;2023-11-22T06:42:56;5.53;78.84
63202;DHT22;49296;48.188;11.566;2023-11-22T06:45:23;5.43;78.93
63202;DHT22;49296;48.188;11.566;2023-11-22T06:47:49;5.40;78.76
63202;DHT22;49296;48.188;11.566;2023-11-22T06:50:16;5.18;78.96
63202;DHT22;49296;48.188;11.566;2023-11-22T06:52:42;5.05;78.89
63202;DHT22;49296;48.188;11.566;2023-11-22T06:55:09;5.15;78.99
63202;DHT22;49296;48.188;11.566;2023-11-22T06:57:37;5.09;79.12
63202;DHT22;49296;48.188;11.566;2023-11-22T07:00:04;4.89;79.68
63202;DHT22;49296;48.188;11.566;2023-11-22T07:02:31;5.21;79.43
63202;DHT22;49296;48.188;11.566;2023-11-22T07:04:57;5.02;79.63
63202;DHT22;49296;48.188;11.566;2023-11-22T07:07:24;5.35;79.65
63202;DHT22;49296;48.188;11.566;2023-11-22T07:09:50;5.39;78.87
63202;DHT22;49296;48.188;11.566;2023-11-22T07:12:17;5.12;78.92
63202;DHT22;49296;48.188;11.566;2023-11-22T07:14:45;4.78;79.60
63202;DHT22;49296;48.188;11.566;2023-11-22T07:17:14;4.87;79.63
63202;DHT22;49296;48.188;11.566;2023-11-22T07:19:42;5.04;79.50
63202;DHT22;49296;48.188;11.566;2023-11-22T07:22:12;5.15;79.28
63202;DHT22;49296;48.188;11.566;2023-11-22T07:24:41;4.71;79.13
63202;DHT22;49296;48.188;11.566;2023-11-22T07:27:09;4.84;79.28
63202;DHT22;49296;48.188;11.566;2023-11-22T07:29:37;4.71;79.72
63202;DHT22;49296;48.188;11.566;2023-11-22T07:32:05;4.57;79.67
63202;DHT22;49296;48.188;11.566;2023-11-22T07:34:32;4.61;80.03
63202;DHT22;49296;48.188;11.566;2023-11-22T07:36:58;4.85;79.85
63202;DHT22;49296;48.188;11.566;2023-11-22T07:39:25;4.52;80.21
63202;DHT22;49296;48.188;11.566;2023-11-22T07:41:52;4.61;80.39
63202;DHT22;49296;48.188;11.566;2023-11-22T07:44:20;4.91;79.99
63202;DHT22;49296;48.188;11.566;2023-11-22T07:46:46;4.67;79.91
63202;DHT22;49296;48.188;11.566;2023-11-22T07:49:14;4.53;80.28
63202;DHT22;49296;48.188;11.566;2023-11-22T07:51:40;4.43;80.44
63202;DHT22;49296;48.188;11.566;2023-11-22T07:54:07;4.43;80.90
63202;DHT22;49296;48.188;11.566;2023-11-22T07:56:34;4.41;81.03
63202;DHT22;49296;48.188;11.566;2023-11-22T07:59:02;4.42;80.74
63202;DHT22;49296;48.188;11.566;2023-11-22T08:01:29;4.56;80.52
63202;DHT22;49296;48.188;11.566;2023-11-22T08:03:56;4.61;80.34
63202;DHT22;49296;48.188;11.566;2023-11-22T08:06:24;4.85;80.11
63202;DHT22;49296;48.188;11.566;2023-11-22T08:08:52;4.67;80.08
63202;DHT22;49296;48.188;11.566;2023-11-22T08:11:18;4.88;79.71
63202;DHT22;49296;48.188;11.566;2023-11-22T08:13:46;4.69;79.98
63202;DHT22;49296;48.188;11.566;2023-11-22T08:16:12;4.81;79.66
63202;DHT22;49296;48.188;11.566;2023-11-22T08:18:39;5.04;79.39
63202;DHT22;49296;48.188;11.566;2023-11-22T08:21:07;5.01;79.00
63202;DHT22;49296;48.188;11.566;2023-11-22T08:23:35;4.78;79.11
63202;DHT22;49296;48.188;11.566;2023-11-22T08:26:01;4.29;80.02
63202;DHT22;49296;48.188;11.566;2023-11-22T08:28:29;4.35;80.49
63202;DHT22;49296;48.188;11.566;2023-11-22T08:30:56;4.32;80.52
63202;DHT22;49296;48.188;11.566;2023-11-22T08:33:22;4.35;80.44
63202;DHT22;49296;48.188;11.566;2023-11-22T08:35:48;4.35;80.85
63202;DHT22;49296;48.188;11.566;2023-11-22T08:38:23;4.56;80.99
63202;DHT22;49296;48.188;11.566;2023-11-22T08:40:51;4.70;81.20
63202;DHT22;49296;48.188;11.566;2023-11-22T08:43:17;4.88;80.57
63202;DHT22;49296;48.188;11.566;2023-11-22T08:45:48;5.05;80.46
63202;DHT22;49296;48.188;11.566;2023-11-22T08:48:14;5.19;80.25
63202;DHT22;49296;48.188;11.566;2023-11-22T08:50:42;5.26;79.85
63202;DHT22;49296;48.188;11.566;2023-11-22T08:53:09;4.87;79.89
63202;DHT22;49296;48.188;11.566;2023-11-22T08:55:36;5.11;80.02
63202;DHT22;49296;48.188;11.566;2023-11-22T08:58:03;4.99;79.81
63202;DHT22;49296;48.188;11.566;2023-11-22T09:00:30;5.26;80.03
63202;DHT22;49296;48.188;11.566;2023-11-22T09:02:57;5.21;80.53
63202;DHT22;49296;48.188;11.566;2023-11-22T09:05:23;5.02;80.07
63202;DHT22;49296;48.188;11.566;2023-11-22T09:07:50;4.95;80.41
63202;DHT22;49296;48.188;11.566;2023-11-22T09:10:17;5.12;80.09
63202;DHT22;49296;48.188;11.566;2023-11-22T09:12:44;4.97;79.91
63202;DHT22;49296;48.188;11.566;2023-11-22T09:15:14;4.71;80.31
63202;DHT22;49296;48.188;11.566;2023-11-22T09:17:43;4.53;80.28
63202;DHT22;49296;48.188;11.566;2023-11-22T09:20:11;4.49;80.91
63202;DHT22;49296;48.188;11.566;2023-11-22T09:22:41;4.67;80.85
63202;DHT22;49296;48.188;11.566;2023-11-22T09:25:10;4.91;80.64
63202;DHT22;49296;48.188;11.566;2023-11-22T09:27:37;4.67;80.34
63202;DHT22;49296;48.188;11.566;2023-11-22T09:30:04;4.69;80.62
63202;DHT22;49296;48.188;11.566;2023-11-22T09:32:32;4.91;80.17
63202;DHT22;49296;48.188;11.566;2023-11-22T09:34:59;4.88;80.14
63202;DHT22;49296;48.188;11.566;2023-11-22T09:37:25;4.92;80.09
63202;DHT22;49296;48.188;11.566;2023-11-22T09:39:52;4.85;80.73
63202;DHT22;49296;48.188;11.566;2023-11-22T09:42:19;5.12;80.03
63202;DHT22;49296;48.188;11.566;2023-11-22T09:44:46;4.81;80.16
63202;DHT22;49296;48.188;11.566;2023-11-22T09:47:13;4.63;79.91
63202;DHT22;49296;48.188;11.566;2023-11-22T09:49:42;4.60;80.28
63202;DHT22;49296;48.188;11.566;2023-11-22T09:52:09;4.22;80.94
63202;DHT22;49296;48.188;11.566;2023-11-22T09:54:37;4.29;80.81
63202;DHT22;49296;48.188;11.566;2023-11-22T09:57:05;4.11;81.15
63202;DHT22;49296;48.188;11.566;2023-11-22T09:59:35;4.39;80.65
63202;DHT22;49296;48.188;11.566;2023-11-22T10:02:02;4.12;80.29
63202;DHT22;49296;48.188;11.566;2023-11-22T10:04:31;4.16;81.10
63202;DHT22;49296;48.188;11.566;2023-11-22T10:07:00;4.42;80.80
63202;DHT22;49296;48.188;11.566;2023-11-22T10:09:27;4.71;80.41
63202;DHT22;49296;48.188;11.566;2023-11-22T10:11:57;4.57;79.83
63202;DHT22;49296;48.188;11.566;2023-11-22T10:14:24;4.71;79.52
63202;DHT22;49296;48.188;11.566;2023-11-22T10:16:57;4.63;78.63
63202;DHT22;49296;48.188;11.566;2023-11-22T10:19:24;4.60;78.99
63202;DHT22;49296;48.188;11.566;2023-11-22T10:22:00;4.78;79.16
63202;DHT22;49296;48.188;11.566;2023-11-22T10:24:29;4.76;79.15
63202;DHT22;49296;48.188;11.566;2023-11-22T10:26:56;5.09;78.26
63202;DHT22;49296;48.188;11.566;2023-11-22T10:29:24;5.23;78.09
63202;DHT22;49296;48.188;11.566;2023-11-22T10:31:51;5.39;77.76
63202;DHT22;49296;48.188;11.566;2023-11-22T10:34:18;5.07;77.06
63202;DHT22;49296;48.188;11.566;2023-11-22T10:36:45;4.99;77.77
63202;DHT22;49296;48.188;11.566;2023-11-22T10:39:13;5.25;78.05
63202;DHT22;49296;48.188;11.566;2023-11-22T10:41:41;5.47;77.04
63202;DHT22;49296;48.188;11.566;2023-11-22T10:44:08;5.67;76.65
63202;DHT22;49296;48.188;11.566;2023-11-22T10:46:35;5.74;76.56
63202;DHT22;49296;48.188;11.566;2023-11-22T10:49:04;5.66;76.47
63202;DHT22;49296;48.188;11.566;2023-11-22T10:51:31;5.83;76.34
63202;DHT22;49296;48.188;11.566;2023-11-22T10:53:58;5.81;76.20
63202;DHT22;49296;48.188;11.566;2023-11-22T10:56:27;5.75;75.96
63202;DHT22;49296;48.188;11.566;2023-11-22T10:58:56;5.49;76.46
63202;DHT22;49296;48.188;11.566;2023-11-22T11:01:24;5.50;76.17
63202;DHT22;49296;48.188;11.566;2023-11-22T11:03:53;5.32;76.57
63202;DHT22;49296;48.188;11.566;2023-11-22T11:06:23;5.58;76.88
63202;DHT22;49296;48.188;11.566;2023-11-22T11:08:53;5.25;76.78
63202;DHT22;49296;48.188;11.566;2023-11-22T11:11:20;4.98;76.99
63202;DHT22;49296;48.188;11.566;2023-11-22T11:13:49;4.81;77.59
63202;DHT22;49296;48.188;11.566;2023-11-22T11:16:15;5.08;76.98
63202;DHT22;49296;48.188;11.566;2023-11-22T11:18:42;5.25;77.08
63202;DHT22;49296;48.188;11.566;2023-11-22T11:21:09;5.12;77.28
63202;DHT22;49296;48.188;11.566;2023-11-22T11:23:38;5.04;77.51
63202;DHT22;49296;48.188;11.566;2023-11-22T11:26:08;5.04;77.07
63202;DHT22;49296;48.188;11.566;2023-11-22T11:28:41;4.98;77.70
63202;DHT22;49296;48.188;11.566;2023-11-22T11:31:09;5.15;77.10
63202;DHT22;49296;48.188;11.566;2023-11-22T11:33:52;5.46;76.76
63202;DHT22;49296;48.188;11.566;2023-11-22T11:36:20;5.54;76.31
63202;DHT22;49296;48.188;11.566;2023-11-22T11:38:47;5.67;75.62
63202;DHT22;49296;48.188;11.566;2023-11-22T11:41:14;5.57;75.60
63202;DHT22;49296;48.188;11.566;2023-11-22T11:43:41;5.75;75.30
63202;DHT22;49296;48.188;11.566;2023-11-22T11:46:10;5.84;75.14
63202;DHT22;49296;48.188;11.566;2023-11-22T11:48:37;5.94;74.60
63202;DHT22;49296;48.188;11.566;2023-11-22T11:51:03;5.84;75.14
63202;DHT22;49296;48.188;11.566;2023-11-22T11:53:32;5.78;75.25
63202;DHT22;49296;48.188;11.566;2023-11-22T11:55:58;5.97;75.09
63202;DHT22;49296;48.188;11.566;2023-11-22T11:58:24;6.05;74.84
63202;DHT22;49296;48.188;11.566;2023-11-22T12:00:51;5.92;75.46
63202;DHT22;49296;48.188;11.566;2023-11-22T12:03:19;5.94;74.95
63202;DHT22;49296;48.188;11.566;2023-11-22T12:05:46;6.02;74.18
63202;DHT22;49296;48.188;11.566;2023-11-22T12:08:13;5.92;74.51
63202;DHT22;49296;48.188;11.566;2023-11-22T12:10:40;5.90;74.51
63202;DHT22;49296;48.188;11.566;2023-11-22T12:13:07;5.85;75.07
63202;DHT22;49296;48.188;11.566;2023-11-22T12:15:34;5.70;74.21
63202;DHT22;49296;48.188;11.566;2023-11-22T12:18:00;5.50;74.36
63202;DHT22;49296;48.188;11.566;2023-11-22T12:20:28;5.35;74.55
63202;DHT22;49296;48.188;11.566;2023-11-22T12:22:56;5.28;75.06
63202;DHT22;49296;48.188;11.566;2023-11-22T12:25:25;5.02;75.57
63202;DHT22;49296;48.188;11.566;2023-11-22T12:27:53;5.04;76.49
63202;DHT22;49296;48.188;11.566;2023-11-22T12:30:29;4.91;76.87
63202;DHT22;49296;48.188;11.566;2023-11-22T12:32:57;5.05;77.03
63202;DHT22;49296;48.188;11.566;2023-11-22T12:35:23;5.04;76.57
63202;DHT22;49296;48.188;11.566;2023-11-22T12:37:51;5.07;76.50
63202;DHT22;49296;48.188;11.566;2023-11-22T12:40:20;5.25;76.38
63202;DHT22;49296;48.188;11.566;2023-11-22T12:42:49;5.43;76.11
63202;DHT22;49296;48.188;11.566;2023-11-22T12:45:22;5.47;75.72
63202;DHT22;49296;48.188;11.566;2023-11-22T12:47:49;5.44;74.86
63202;DHT22;49296;48.188;11.566;2023-11-22T12:50:36;5.33;75.08
63202;DHT22;49296;48.188;11.566;2023-11-22T12:53:09;5.38;76.01
63202;DHT22;49296;48.188;11.566;2023-11-22T12:55:37;5.25;75.86
63202;DHT22;49296;48.188;11.566;2023-11-22T12:58:03;5.14;76.19
63202;DHT22;49296;48.188;11.566;2023-11-22T13:00:30;5.30;75.87
63202;DHT22;49296;48.188;11.566;2023-11-22T13:02:56;5.25;76.17
63202;DHT22;49296;48.188;11.566;2023-11-22T13:05:22;5.22;76.06
63202;DHT22;49296;48.188;11.566;2023-11-22T13:07:49;5.43;76.30
63202;DHT22;49296;48.188;11.566;2023-11-22T13:10:19;5.43;75.38
63202;DHT22;49296;48.188;11.566;2023-11-22T13:12:50;5.32;74.62
63202;DHT22;49296;48.188;11.566;2023-11-22T13:15:17;5.43;73.97
63202;DHT22;49296;48.188;11.566;2023-11-22T13:17:43;5.42;74.07
63202;DHT22;49296;48.188;11.566;2023-11-22T13:20:10;5.40;74.52
63202;DHT22;49296;48.188;11.566;2023-11-22T13:22:39;5.57;74.66
63202;DHT22;49296;48.188;11.566;2023-11-22T13:25:06;5.67;74.92
63202;DHT22;49296;48.188;11.566;2023-11-22T13:27:34;5.75;74.61
63202;DHT22;49296;48.188;11.566;2023-11-22T13:30:01;5.75;74.58
63202;DHT22;49296;48.188;11.566;2023-11-22T13:32:29;5.85;74.10
63202;DHT22;49296;48.188;11.566;2023-11-22T13:34:55;5.73;74.49
63202;DHT22;49296;48.188;11.566;2023-11-22T13:37:22;5.83;74.38
63202;DHT22;49296;48.188;11.566;2023-11-22T13:39:49;5.79;74.89
63202;DHT22;49296;48.188;11.566;2023-11-22T13:42:15;5.83;75.01
63202;DHT22;49296;48.188;11.566;2023-11-22T13:44:43;5.79;74.67
63202;DHT22;49296;48.188;11.566;2023-11-22T13:47:10;5.81;74.52
63202;DHT22;49296;48.188;11.566;2023-11-22T13:49:36;5.81;73.85
63202;DHT22;49296;48.188;11.566;2023-11-22T13:52:03;5.78;74.11
63202;DHT22;49296;48.188;11.566;2023-11-22T13:54:29;5.77;74.16
63202;DHT22;49296;48.188;11.566;2023-11-22T13:56:57;5.75;74.43
63202;DHT22;49296;48.188;11.566;2023-11-22T13:59:23;5.73;74.98
63202;DHT22;49296;48.188;11.566;2023-11-22T14:01:52;5.64;74.54
63202;DHT22;49296;48.188;11.566;2023-11-22T14:04:18;5.64;74.49
63202;DHT22;49296;48.188;11.566;2023-11-22T14:06:44;5.79;74.40
63202;DHT22;49296;48.188;11.566;2023-11-22T14:09:11;5.81;73.91
63202;DHT22;49296;48.188;11.566;2023-11-22T14:11:39;5.53;73.23
63202;DHT22;49296;48.188;11.566;2023-11-22T14:14:06;5.23;74.54
63202;DHT22;49296;48.188;11.566;2023-11-22T14:16:34;5.33;74.90
63202;DHT22;49296;48.188;11.566;2023-11-22T14:19:05;5.23;75.02
63202;DHT22;49296;48.188;11.566;2023-11-22T14:21:32;5.11;74.69
63202;DHT22;49296;48.188;11.566;2023-11-22T14:23:59;4.87;75.32
63202;DHT22;49296;48.188;11.566;2023-11-22T14:26:25;5.01;75.66
63202;DHT22;49296;48.188;11.566;2023-11-22T14:28:52;5.11;74.93
63202;DHT22;49296;48.188;11.566;2023-11-22T14:31:18;5.33;74.70
63202;DHT22;49296;48.188;11.566;2023-11-22T14:33:45;5.40;74.23
63202;DHT22;49296;48.188;11.566;2023-11-22T14:36:12;5.38;73.71
63202;DHT22;49296;48.188;11.566;2023-11-22T14:38:41;5.43;73.75
63202;DHT22;49296;48.188;11.566;2023-11-22T14:41:07;5.51;74.08
63202;DHT22;49296;48.188;11.566;2023-11-22T14:43:35;5.30;73.66
63202;DHT22;49296;48.188;11.566;2023-11-22T14:46:01;5.26;73.92
63202;DHT22;49296;48.188;11.566;2023-11-22T14:48:28;5.33;73.97
63202;DHT22;49296;48.188;11.566;2023-11-22T14:50:54;5.39;74.30
63202;DHT22;49296;48.188;11.566;2023-11-22T14:53:22;5.53;74.39
63202;DHT22;49296;48.188;11.566;2023-11-22T14:55:49;5.40;74.03
63202;DHT22;49296;48.188;11.566;2023-11-22T14:58:16;5.53;74.37
63202;DHT22;49296;48.188;11.566;2023-11-22T15:00:43;5.64;74.44
63202;DHT22;49296;48.188;11.566;2023-11-22T15:03:09;5.61;74.20
63202;DHT22;49296;48.188;11.566;2023-11-22T15:05:36;5.44;73.83
63202;DHT22;49296;48.188;11.566;2023-11-22T15:08:03;5.07;74.55
63202;DHT22;49296;48.188;11.566;2023-11-22T15:10:31;5.01;74.28
63202;DHT22;49296;48.188;11.566;2023-11-22T15:12:58;5.02;74.32
63202;DHT22;49296;48.188;11.566;2023-11-22T15:15:24;4.95;74.88
63202;DHT22;49296;48.188;11.566;2023-11-22T15:17:51;4.97;74.67
63202;DHT22;49296;48.188;11.566;2023-11-22T15:20:17;5.12;74.94
63202;DHT22;49296;48.188;11.566;2023-11-22T15:22:44;5.26;74.96
63202;DHT22;49296;48.188;11.566;2023-11-22T15:25:11;5.40;74.66
63202;DHT22;49296;48.188;11.566;2023-11-22T15:27:41;5.47;74.34
63202;DHT22;49296;48.188;11.566;2023-11-22T15:30:09;5.42;74.13